createdAt,value
2023-04-20T00:00:25.534Z,1.80
2023-04-20T00:02:53.129Z,2.28
2023-04-20T00:05:20.006Z,1.70
2023-04-20T00:07:48.406Z,2.05
2023-04-20T00:10:15.486Z,2.60
2023-04-20T00:12:42.766Z,1.98
2023-04-20T00:15:09.766Z,1.80
2023-04-20T00:17:38.765Z,2.13
2023-04-20T00:20:06.076Z,2.03
2023-04-20T00:22:32.718Z,2.30
2023-04-20T00:24:59.258Z,1.95
2023-04-20T00:27:26.167Z,1.65
2023-04-20T00:29:52.698Z,1.95
2023-04-20T00:32:19.275Z,2.03
2023-04-20T00:34:46.022Z,2.30
2023-04-20T00:37:12.578Z,1.95
2023-04-20T00:39:39.161Z,1.95
2023-04-20T00:42:09.137Z,2.00
2023-04-20T00:44:35.986Z,1.83
2023-04-20T00:47:02.642Z,1.70
2023-04-20T00:49:30.822Z,1.80
2023-04-20T00:52:01.025Z,1.85
2023-04-20T00:54:29.805Z,1.77
2023-04-20T00:56:57.984Z,1.85
2023-04-20T00:59:24.845Z,2.28
2023-04-20T01:01:51.469Z,1.98
2023-04-20T01:04:18.637Z,1.55
2023-04-20T01:06:45.391Z,2.05
2023-04-20T01:09:12.472Z,2.30
2023-04-20T01:11:39.425Z,2.15
2023-04-20T01:14:06.433Z,2.30
2023-04-20T01:16:34.803Z,2.10
2023-04-20T01:19:01.522Z,2.25
2023-04-20T01:21:28.187Z,2.70
2023-04-20T01:23:55.000Z,1.88
2023-04-20T01:26:23.799Z,2.00
2023-04-20T01:28:50.519Z,2.42
2023-04-20T01:31:17.678Z,2.08
2023-04-20T01:33:44.509Z,2.00
2023-04-20T01:36:11.303Z,2.15
2023-04-20T01:38:38.133Z,2.08
2023-04-20T01:41:06.913Z,2.00
2023-04-20T01:43:35.108Z,2.25
2023-04-20T01:46:01.897Z,2.60
2023-04-20T01:48:28.575Z,2.38
2023-04-20T01:50:55.575Z,2.67
2023-04-20T01:53:22.278Z,2.75
2023-04-20T01:55:49.853Z,2.50
2023-04-20T01:58:16.751Z,2.80
2023-04-20T02:00:43.601Z,2.20
2023-04-20T02:03:11.121Z,2.50
2023-04-20T02:05:37.828Z,2.45
2023-04-20T02:08:04.797Z,2.58
2023-04-20T02:10:31.396Z,2.50
2023-04-20T02:12:57.992Z,2.20
2023-04-20T02:15:24.577Z,2.57
2023-04-20T02:17:52.188Z,2.40
2023-04-20T02:20:19.931Z,2.77
2023-04-20T02:22:46.762Z,2.73
2023-04-20T02:25:14.888Z,3.00
2023-04-20T02:27:41.746Z,2.80
2023-04-20T02:30:08.713Z,2.70
2023-04-20T02:32:35.385Z,2.57
2023-04-20T02:35:03.973Z,2.50
2023-04-20T02:37:31.174Z,2.30
2023-04-20T02:39:57.888Z,2.50
2023-04-20T02:42:24.562Z,2.60
2023-04-20T02:44:52.703Z,2.63
2023-04-20T02:47:19.460Z,2.73
2023-04-20T02:49:46.094Z,2.27
2023-04-20T02:52:12.716Z,2.47
2023-04-20T02:54:39.282Z,3.13
2023-04-20T02:57:05.922Z,2.70
2023-04-20T02:59:32.694Z,3.05
2023-04-20T03:01:59.396Z,2.85
2023-04-20T03:04:27.705Z,2.70
2023-04-20T03:06:54.714Z,2.95
2023-04-20T03:09:21.646Z,2.67
2023-04-20T03:11:48.536Z,2.50
2023-04-20T03:14:15.147Z,2.30
2023-04-20T03:16:42.024Z,2.70
2023-04-20T03:19:08.818Z,3.00
2023-04-20T03:21:35.701Z,2.33
2023-04-20T03:24:02.615Z,2.80
2023-04-20T03:26:29.198Z,2.20
2023-04-20T03:28:56.008Z,3.38
2023-04-20T03:31:22.704Z,2.93
2023-04-20T03:33:49.269Z,2.92
2023-04-20T03:36:15.951Z,2.43
2023-04-20T03:38:42.622Z,2.47
2023-04-20T03:41:09.225Z,2.40
2023-04-20T03:43:35.789Z,2.30
2023-04-20T03:46:02.587Z,2.50
2023-04-20T03:48:29.268Z,3.00
2023-04-20T03:50:56.041Z,2.90
2023-04-20T03:53:23.297Z,2.53
2023-04-20T03:55:49.898Z,2.50
2023-04-20T03:58:17.318Z,2.38
2023-04-20T04:00:43.980Z,2.60
2023-04-20T04:03:10.948Z,2.27
2023-04-20T04:05:37.656Z,2.70
2023-04-20T04:08:04.366Z,2.63
2023-04-20T04:10:30.948Z,2.93
2023-04-20T04:12:57.617Z,2.97
2023-04-20T04:15:24.429Z,2.80
2023-04-20T04:17:51.170Z,2.97
2023-04-20T04:20:17.927Z,2.77
2023-04-20T04:22:44.526Z,3.43
2023-04-20T04:25:11.839Z,3.20
2023-04-20T04:27:39.785Z,3.00
2023-04-20T04:30:07.265Z,2.87
2023-04-20T04:32:36.677Z,3.20
2023-04-20T04:35:03.565Z,3.83
2023-04-20T04:37:30.202Z,3.80
2023-04-20T04:39:58.133Z,3.63
2023-04-20T04:42:24.848Z,3.70
2023-04-20T04:44:53.390Z,3.77
2023-04-20T04:47:21.871Z,4.00
2023-04-20T04:49:49.227Z,3.80
2023-04-20T04:52:15.826Z,3.90
2023-04-20T04:54:42.437Z,3.87
2023-04-20T04:57:08.999Z,3.57
2023-04-20T04:59:36.022Z,3.93
2023-04-20T05:02:02.681Z,3.40
2023-04-20T05:04:29.360Z,3.87
2023-04-20T05:06:55.997Z,3.57
2023-04-20T05:09:22.549Z,4.30
2023-04-20T05:11:49.084Z,3.93
2023-04-20T05:14:15.770Z,4.23
2023-04-20T05:16:42.403Z,4.80
2023-04-20T05:19:09.047Z,4.90
2023-04-20T05:21:36.083Z,4.07
2023-04-20T05:24:02.767Z,4.30
2023-04-20T05:26:29.294Z,4.73
2023-04-20T05:28:56.144Z,4.47
2023-04-20T05:31:22.756Z,4.17
2023-04-20T05:33:49.352Z,4.17
2023-04-20T05:36:16.033Z,4.57
2023-04-20T05:38:42.617Z,4.50
2023-04-20T05:41:09.235Z,4.70
2023-04-20T05:43:35.821Z,4.77
2023-04-20T05:46:02.442Z,4.30
2023-04-20T05:48:30.180Z,4.43
2023-04-20T05:50:57.200Z,5.20
2023-04-20T05:53:23.778Z,5.43
2023-04-20T05:55:50.358Z,5.30
2023-04-20T05:58:17.394Z,4.47
2023-04-20T06:00:44.411Z,5.00
2023-04-20T06:03:11.332Z,4.83
2023-04-20T06:05:38.324Z,4.97
2023-04-20T06:08:05.004Z,5.40
2023-04-20T06:10:34.033Z,5.40
2023-04-20T06:13:00.954Z,5.50
2023-04-20T06:15:27.988Z,5.20
2023-04-20T06:17:54.633Z,4.63
2023-04-20T06:20:21.419Z,5.30
2023-04-20T06:22:48.284Z,5.30
2023-04-20T06:25:15.761Z,4.93
2023-04-20T06:27:42.774Z,4.40
2023-04-20T06:30:10.023Z,4.85
2023-04-20T06:32:37.872Z,5.20
2023-04-20T06:35:05.983Z,4.78
2023-04-20T06:37:32.641Z,5.20
2023-04-20T06:39:59.353Z,5.05
2023-04-20T06:42:26.371Z,5.05
2023-04-20T06:44:52.950Z,5.20
2023-04-20T06:47:19.587Z,4.80
2023-04-20T06:49:46.280Z,5.13
2023-04-20T06:52:12.818Z,5.20
2023-04-20T06:54:39.352Z,5.20
2023-04-20T06:57:08.480Z,6.22
2023-04-20T06:59:35.623Z,5.25
2023-04-20T07:02:02.452Z,5.15
2023-04-20T07:04:29.266Z,5.28
2023-04-20T07:06:55.928Z,5.33
2023-04-20T07:09:23.074Z,6.50
2023-04-20T07:11:49.930Z,5.75
2023-04-20T07:14:16.609Z,5.97
2023-04-20T07:16:43.182Z,6.10
2023-04-20T07:19:10.293Z,6.20
2023-04-20T07:21:37.004Z,6.65
2023-04-20T07:24:03.826Z,6.63
2023-04-20T07:26:31.102Z,6.50
2023-04-20T07:28:57.907Z,7.22
2023-04-20T07:31:24.571Z,6.78
2023-04-20T07:33:51.223Z,6.15
2023-04-20T07:36:17.893Z,7.22
2023-04-20T07:38:44.417Z,6.82
2023-04-20T07:41:11.460Z,8.27
2023-04-20T07:43:38.965Z,7.13
2023-04-20T07:46:05.693Z,7.00
2023-04-20T07:48:34.199Z,6.70
2023-04-20T07:51:01.075Z,7.35
2023-04-20T07:53:30.029Z,6.88
2023-04-20T07:55:56.621Z,7.25
2023-04-20T07:58:23.152Z,7.43
2023-04-20T08:00:49.770Z,6.97
2023-04-20T08:03:16.466Z,6.60
2023-04-20T08:05:43.306Z,7.10
2023-04-20T08:08:09.982Z,7.75
2023-04-20T08:10:37.073Z,7.55
2023-04-20T08:13:03.679Z,7.90
2023-04-20T08:15:31.440Z,7.47
2023-04-20T08:17:58.390Z,7.68
2023-04-20T08:20:25.076Z,7.55
2023-04-20T08:22:52.780Z,7.30
2023-04-20T08:25:19.475Z,8.20
2023-04-20T08:27:46.069Z,7.72
2023-04-20T08:30:12.895Z,8.25
2023-04-20T08:32:40.901Z,7.78
2023-04-20T08:35:08.948Z,7.85
2023-04-20T08:37:35.751Z,8.63
2023-04-20T08:40:02.353Z,8.02
2023-04-20T08:42:28.970Z,7.93
2023-04-20T08:44:55.924Z,8.20
2023-04-20T08:47:22.789Z,8.85
2023-04-20T08:49:54.608Z,8.32
2023-04-20T08:52:21.271Z,8.52
2023-04-20T08:54:56.185Z,9.25
2023-04-20T08:57:24.967Z,9.25
2023-04-20T08:59:51.848Z,9.80
2023-04-20T09:02:19.673Z,9.57
2023-04-20T09:04:49.108Z,10.25
2023-04-20T09:07:20.815Z,9.38
2023-04-20T09:09:57.541Z,9.88
2023-04-20T09:12:24.657Z,10.63
2023-04-20T09:14:52.043Z,9.95
2023-04-20T09:17:30.884Z,11.23
2023-04-20T09:19:57.619Z,10.10
2023-04-20T09:22:32.697Z,10.50
2023-04-20T09:24:59.923Z,10.20
2023-04-20T09:27:26.459Z,10.45
2023-04-20T09:30:06.615Z,10.23
2023-04-20T09:32:33.765Z,10.25
2023-04-20T09:35:00.340Z,10.70
2023-04-20T09:37:26.957Z,10.52
2023-04-20T09:39:59.373Z,11.75
2023-04-20T09:42:28.295Z,12.18
2023-04-20T09:44:57.214Z,11.43
2023-04-20T09:47:25.901Z,12.48
2023-04-20T09:49:54.273Z,12.38
2023-04-20T09:52:21.006Z,11.10
2023-04-20T09:54:47.572Z,12.93
2023-04-20T09:57:14.850Z,11.98
2023-04-20T09:59:46.314Z,12.13
2023-04-20T10:02:14.449Z,12.38
2023-04-20T10:04:57.306Z,11.88
2023-04-20T10:07:28.920Z,11.40
2023-04-20T10:10:16.028Z,11.55
2023-04-20T10:12:53.572Z,11.07
2023-04-20T10:15:23.980Z,11.18
2023-04-20T10:17:51.029Z,11.30
2023-04-20T10:20:27.261Z,10.80
2023-04-20T10:23:06.062Z,10.10
2023-04-20T10:25:32.637Z,8.35
2023-04-20T10:28:04.457Z,8.48
2023-04-20T10:30:32.375Z,6.90
2023-04-20T10:33:11.114Z,6.55
2023-04-20T10:35:46.677Z,6.38
2023-04-20T10:38:13.406Z,5.97
2023-04-20T10:40:40.249Z,5.20
2023-04-20T10:43:19.567Z,5.25
2023-04-20T10:45:46.117Z,5.32
2023-04-20T10:48:14.849Z,5.40
2023-04-20T10:50:42.590Z,5.47
2023-04-20T10:53:19.615Z,5.35
2023-04-20T10:55:46.319Z,5.05
2023-04-20T10:58:24.432Z,5.10
2023-04-20T11:01:01.432Z,5.50
2023-04-20T11:03:34.264Z,5.07
2023-04-20T11:06:01.657Z,4.53
2023-04-20T11:08:41.971Z,3.97
2023-04-20T11:11:21.577Z,4.25
2023-04-20T11:13:48.516Z,4.10
2023-04-20T11:16:16.768Z,4.22
2023-04-20T11:18:51.894Z,3.97
2023-04-20T11:21:19.490Z,4.20
2023-04-20T11:23:46.826Z,4.07
2023-04-20T11:26:13.634Z,4.13
2023-04-20T11:28:55.959Z,4.05
2023-04-20T11:31:23.320Z,4.45
2023-04-20T11:33:50.161Z,4.43
2023-04-20T11:36:21.478Z,4.10
2023-04-20T11:38:49.047Z,4.20
2023-04-20T11:41:16.566Z,3.95
2023-04-20T11:43:46.197Z,4.30
2023-04-20T11:46:20.278Z,3.80
2023-04-20T11:48:47.876Z,4.10
2023-04-20T11:51:15.148Z,3.90
2023-04-20T11:53:41.951Z,4.53
2023-04-20T11:56:09.058Z,4.43
2023-04-20T11:58:36.278Z,4.25
2023-04-20T12:01:02.839Z,4.40
2023-04-20T12:03:29.615Z,5.30
2023-04-20T12:05:56.411Z,4.50
2023-04-20T12:08:24.590Z,4.55
2023-04-20T12:10:51.364Z,4.40
2023-04-20T12:13:17.884Z,4.35
2023-04-20T12:15:44.476Z,4.30
2023-04-20T12:18:11.166Z,4.35
2023-04-20T12:20:37.805Z,4.53
2023-04-20T12:23:04.409Z,4.55
2023-04-20T12:25:31.201Z,5.10
2023-04-20T12:27:57.767Z,4.03
2023-04-20T12:30:24.426Z,4.32
2023-04-20T12:32:51.214Z,4.13
2023-04-20T12:35:17.974Z,4.03
2023-04-20T12:37:44.628Z,3.85
2023-04-20T12:40:11.746Z,4.20
2023-04-20T12:42:38.343Z,3.97
2023-04-20T12:45:05.259Z,4.50
2023-04-20T12:47:31.874Z,4.90
2023-04-20T12:49:58.442Z,4.97
2023-04-20T12:52:24.966Z,4.88
2023-04-20T12:54:52.153Z,5.13
2023-04-20T12:57:18.695Z,4.78
2023-04-20T12:59:45.439Z,4.43
2023-04-20T13:02:12.171Z,4.80
2023-04-20T13:04:38.869Z,5.18
2023-04-20T13:07:06.209Z,5.00
2023-04-20T13:09:32.880Z,4.88
2023-04-20T13:11:59.419Z,5.28
2023-04-20T13:14:26.728Z,5.45
2023-04-20T13:16:55.154Z,5.53
2023-04-20T13:19:22.549Z,4.95
2023-04-20T13:21:49.143Z,5.05
2023-04-20T13:24:16.382Z,4.95
2023-04-20T13:26:43.115Z,5.20
2023-04-20T13:29:09.681Z,4.97
2023-04-20T13:31:37.478Z,5.10
2023-04-20T13:34:04.093Z,4.72
2023-04-20T13:36:31.725Z,4.60
2023-04-20T13:38:58.645Z,4.78
2023-04-20T13:41:25.298Z,5.38
2023-04-20T13:43:52.049Z,4.82
2023-04-20T13:46:20.015Z,4.75
2023-04-20T13:48:46.824Z,4.57
2023-04-20T13:51:13.384Z,4.95
2023-04-20T13:53:39.939Z,4.80
2023-04-20T13:56:06.889Z,4.72
2023-04-20T13:58:33.942Z,5.00
2023-04-20T14:01:00.871Z,4.65
2023-04-20T14:03:27.561Z,4.60
2023-04-20T14:05:54.307Z,5.00
2023-04-20T14:08:23.201Z,5.00
2023-04-20T14:10:49.842Z,4.93
2023-04-20T14:13:16.512Z,4.90
2023-04-20T14:15:43.211Z,5.53
2023-04-20T14:18:09.844Z,4.80
2023-04-20T14:20:36.422Z,4.75
2023-04-20T14:23:03.002Z,4.97
2023-04-20T14:25:29.668Z,4.90
2023-04-20T14:27:56.466Z,4.47
2023-04-20T14:30:23.443Z,5.00
2023-04-20T14:32:57.464Z,4.50
2023-04-20T14:35:26.102Z,5.10
2023-04-20T14:37:53.120Z,4.75
2023-04-20T14:40:20.460Z,4.75
2023-04-20T14:42:47.392Z,4.93
2023-04-20T14:45:14.168Z,5.00
2023-04-20T14:47:44.017Z,5.70
2023-04-20T14:50:11.352Z,5.60
2023-04-20T14:52:37.933Z,5.95
2023-04-20T14:55:04.809Z,5.57
2023-04-20T14:57:31.555Z,5.88
2023-04-20T14:59:58.159Z,6.22
2023-04-20T15:02:25.477Z,6.22
2023-04-20T15:04:52.670Z,6.25
2023-04-20T15:07:19.414Z,6.30
2023-04-20T15:09:46.535Z,6.32
2023-04-20T15:12:13.083Z,6.60
2023-04-20T15:14:39.735Z,6.68
2023-04-20T15:17:06.408Z,6.82
2023-04-20T15:19:32.975Z,7.80
2023-04-20T15:22:00.160Z,7.72
2023-04-20T15:24:26.732Z,8.63
2023-04-20T15:26:53.668Z,9.43
2023-04-20T15:29:20.596Z,9.93
2023-04-20T15:31:47.247Z,9.18
2023-04-20T15:34:17.115Z,9.50
2023-04-20T15:36:44.364Z,9.68
2023-04-20T15:39:10.952Z,9.68
2023-04-20T15:41:37.690Z,9.80
2023-04-20T15:44:04.526Z,9.93
2023-04-20T15:46:31.218Z,10.18
2023-04-20T15:48:58.066Z,10.30
2023-04-20T15:51:24.927Z,10.27
2023-04-20T15:53:51.766Z,10.38
2023-04-20T15:56:18.749Z,10.90
2023-04-20T15:58:46.115Z,11.13
2023-04-20T16:01:12.758Z,10.98
2023-04-20T16:03:39.745Z,10.10
2023-04-20T16:06:07.218Z,10.75
2023-04-20T16:08:33.790Z,11.25
2023-04-20T16:11:00.582Z,10.10
2023-04-20T16:13:27.248Z,9.77
2023-04-20T16:15:55.452Z,10.10
2023-04-20T16:18:22.262Z,10.40
2023-04-20T16:20:48.896Z,9.70
2023-04-20T16:23:15.858Z,10.63
2023-04-20T16:25:43.017Z,9.77
2023-04-20T16:28:09.609Z,9.57
2023-04-20T16:30:39.314Z,10.25
2023-04-20T16:33:06.149Z,10.07
2023-04-20T16:35:32.732Z,9.43
2023-04-20T16:37:59.336Z,9.55
2023-04-20T16:40:26.268Z,9.60
2023-04-20T16:42:52.959Z,8.43
2023-04-20T16:45:26.143Z,8.98
2023-04-20T16:47:53.018Z,8.05
2023-04-20T16:50:20.391Z,8.60
2023-04-20T16:52:47.827Z,8.57
2023-04-20T16:55:14.819Z,7.97
2023-04-20T16:57:42.051Z,8.30
2023-04-20T17:00:10.634Z,8.40
2023-04-20T17:02:37.554Z,8.55
2023-04-20T17:05:05.414Z,8.07
2023-04-20T17:07:31.979Z,8.05
2023-04-20T17:09:58.591Z,8.00
2023-04-20T17:12:25.336Z,8.40
2023-04-20T17:14:51.885Z,8.75
2023-04-20T17:17:18.530Z,7.95
2023-04-20T17:19:45.176Z,7.90
2023-04-20T17:22:11.798Z,8.27
2023-04-20T17:24:38.530Z,8.15
2023-04-20T17:27:05.188Z,7.97
2023-04-20T17:29:35.943Z,8.32
2023-04-20T17:32:02.744Z,8.45
2023-04-20T17:34:29.388Z,9.85
2023-04-20T17:36:56.103Z,9.95
2023-04-20T17:39:23.626Z,9.10
2023-04-20T17:41:50.166Z,9.45
2023-04-20T17:44:16.872Z,9.43
2023-04-20T17:46:43.664Z,10.38
2023-04-20T17:49:10.345Z,11.15
2023-04-20T17:51:36.948Z,10.43
2023-04-20T17:54:03.724Z,11.02
2023-04-20T17:56:30.309Z,11.25
2023-04-20T17:58:56.845Z,11.95
2023-04-20T18:01:23.758Z,11.85
2023-04-20T18:03:50.927Z,11.63
2023-04-20T18:06:17.767Z,11.57
2023-04-20T18:08:44.725Z,12.05
2023-04-20T18:11:11.579Z,11.82
2023-04-20T18:13:38.453Z,12.05
2023-04-20T18:16:07.473Z,12.45
2023-04-20T18:18:37.672Z,12.07
2023-04-20T18:21:04.946Z,12.15
2023-04-20T18:23:32.859Z,12.65
2023-04-20T18:25:59.757Z,12.30
2023-04-20T18:28:26.529Z,13.30
2023-04-20T18:30:55.733Z,12.43
2023-04-20T18:33:23.962Z,13.48
2023-04-20T18:35:50.886Z,13.30
2023-04-20T18:38:17.673Z,13.35
2023-04-20T18:40:44.784Z,13.35
2023-04-20T18:43:11.934Z,14.20
2023-04-20T18:45:39.098Z,13.50
2023-04-20T18:48:06.564Z,12.90
2023-04-20T18:50:34.086Z,13.35
2023-04-20T18:53:01.335Z,13.98
2023-04-20T18:55:28.253Z,14.63
2023-04-20T18:57:55.683Z,13.65
2023-04-20T19:00:23.051Z,15.13
2023-04-20T19:02:50.646Z,15.07
2023-04-20T19:05:17.969Z,16.35
2023-04-20T19:07:46.247Z,15.40
2023-04-20T19:10:22.381Z,15.88
2023-04-20T19:12:50.398Z,15.32
2023-04-20T19:15:25.626Z,15.85
2023-04-20T19:17:54.975Z,16.60
2023-04-20T19:20:24.035Z,15.88
2023-04-20T19:22:51.075Z,16.23
2023-04-20T19:25:18.487Z,15.88
2023-04-20T19:27:45.804Z,16.15
2023-04-20T19:30:12.983Z,17.13
2023-04-20T19:32:40.291Z,15.77
2023-04-20T19:35:07.324Z,17.30
2023-04-20T19:37:34.317Z,17.45
2023-04-20T19:40:01.233Z,16.77
2023-04-20T19:42:28.403Z,16.77
2023-04-20T19:44:55.579Z,16.05
2023-04-20T19:47:22.598Z,16.38
2023-04-20T19:49:49.718Z,17.48
2023-04-20T19:52:16.612Z,17.92
2023-04-20T19:54:43.537Z,17.83
2023-04-20T19:57:10.781Z,16.35
2023-04-20T19:59:39.331Z,17.55
2023-04-20T20:04:33.744Z,16.60
2023-04-20T20:07:19.393Z,15.63
2023-04-20T20:09:46.576Z,16.13
2023-04-20T20:12:27.468Z,17.42
2023-04-20T20:15:12.354Z,15.90
2023-04-20T20:17:49.438Z,16.40
2023-04-20T20:20:36.996Z,16.33
2023-04-20T20:25:40.116Z,14.75
2023-04-20T20:28:07.006Z,15.23
2023-04-20T20:30:33.853Z,15.10
2023-04-20T20:33:00.891Z,14.48
2023-04-20T20:35:31.717Z,14.27
2023-04-20T20:37:59.144Z,15.32
2023-04-20T20:40:26.413Z,14.35
2023-04-20T20:42:53.090Z,14.45
2023-04-20T20:45:19.960Z,15.27
2023-04-20T20:47:46.937Z,15.05
2023-04-20T20:50:15.953Z,14.75
2023-04-20T20:52:43.554Z,14.73
2023-04-20T20:55:10.625Z,15.07
2023-04-20T20:57:37.340Z,14.98
2023-04-20T21:00:09.531Z,14.45
2023-04-20T21:02:37.190Z,15.10
2023-04-20T21:05:04.682Z,14.35
2023-04-20T21:07:31.503Z,15.55
2023-04-20T21:09:58.159Z,14.15
2023-04-20T21:12:24.824Z,16.02
2023-04-20T21:14:52.707Z,14.90
2023-04-20T21:17:20.661Z,16.85
2023-04-20T21:19:47.420Z,14.85
2023-04-20T21:22:15.774Z,15.68
2023-04-20T21:24:42.314Z,14.48
2023-04-20T21:27:08.959Z,14.68
2023-04-20T21:29:35.492Z,13.75
2023-04-20T21:32:02.371Z,13.70
2023-04-20T21:34:29.439Z,14.27
2023-04-20T21:37:04.360Z,13.50
2023-04-20T21:39:32.595Z,13.88
2023-04-20T21:41:59.902Z,14.48
2023-04-20T21:44:27.178Z,14.00
2023-04-20T21:46:54.018Z,14.10
2023-04-20T21:49:21.472Z,13.80
2023-04-20T21:51:48.307Z,13.50
2023-04-20T21:54:15.229Z,12.98
2023-04-20T21:56:41.880Z,13.20
2023-04-20T21:59:08.551Z,14.30
2023-04-20T22:01:35.240Z,14.45
2023-04-20T22:04:02.232Z,13.45
2023-04-20T22:06:29.075Z,13.63
2023-04-20T22:08:56.542Z,13.02
2023-04-20T22:11:23.271Z,13.25
2023-04-20T22:13:50.176Z,13.57
2023-04-20T22:16:17.945Z,13.48
2023-04-20T22:18:44.632Z,13.40
2023-04-20T22:21:11.179Z,12.90
2023-04-20T22:23:38.832Z,13.00
2023-04-20T22:26:05.828Z,12.88
2023-04-20T22:28:32.849Z,13.02
2023-04-20T22:30:59.512Z,12.90
2023-04-20T22:33:26.116Z,12.90
2023-04-20T22:35:53.441Z,13.15
2023-04-20T22:38:20.372Z,12.80
2023-04-20T22:40:47.007Z,12.93
2023-04-20T22:43:13.804Z,13.65
2023-04-20T22:45:40.769Z,13.50
2023-04-20T22:48:08.392Z,13.35
2023-04-20T22:50:35.125Z,13.20
2023-04-20T22:53:01.663Z,13.93
2023-04-20T22:55:28.816Z,13.80
2023-04-20T22:57:56.747Z,13.70
2023-04-20T23:00:23.661Z,13.00
2023-04-20T23:02:51.865Z,14.02
2023-04-20T23:05:20.980Z,14.35
2023-04-20T23:07:47.668Z,13.27
2023-04-20T23:10:16.277Z,13.37
2023-04-20T23:12:45.193Z,13.00
2023-04-20T23:15:12.318Z,13.60
2023-04-20T23:17:39.676Z,13.18
2023-04-20T23:20:13.889Z,14.60
2023-04-20T23:22:40.739Z,13.77
2023-04-20T23:25:10.838Z,14.70
2023-04-20T23:27:38.667Z,13.77
2023-04-20T23:30:07.131Z,13.70
2023-04-20T23:32:34.643Z,13.63
2023-04-20T23:35:01.405Z,14.13
2023-04-20T23:37:28.072Z,13.77
2023-04-20T23:39:55.385Z,14.07
2023-04-20T23:42:22.473Z,14.25
2023-04-20T23:44:49.256Z,13.83
2023-04-20T23:47:16.105Z,14.13
2023-04-20T23:49:42.793Z,13.87
2023-04-20T23:52:09.475Z,13.75
2023-04-20T23:54:36.108Z,14.60
2023-04-20T23:57:03.242Z,13.60
2023-04-20T23:59:30.679Z,14.77
